Time;durP1;ratioP1;P1;durP2;ratioP2;P2;SDS_P1;SDS_P2;PMS_P1;PMS_P2;Temp;Humidity;BMP_temperature;BMP_pressure;BME280_temperature;BME280_humidity;BME280_pressure;Samples;Min_cycle;Max_cycle;Signal;HPM_P1;HPM_P2
2022/06/14 00:00:54;;;;;;;;;;;;;;;11.80;100.00;96364.97;1039610;28;19963;-70
2022/06/14 00:01:25;;;;;;;;;;;;;;;11.77;100.00;96357.63;1035491;28;20000;-70
2022/06/14 00:01:55;;;;;;;;;;;;;;;11.74;100.00;96371.28;1035301;28;19916;-70
2022/06/14 00:02:26;;;;;;;;;;;;;;;11.74;100.00;96366.03;1035007;28;20331;-68
2022/06/14 00:02:56;;;;;;;;;;;;;;;11.74;100.00;96360.75;1034684;28;19933;-70
2022/06/14 00:03:28;;;;;;;;;;;;;;;11.71;100.00;96358.63;1039921;28;20440;-69
2022/06/14 00:03:59;;;;;;;;;;;;;;;11.69;100.00;96356.25;1035185;28;19914;-70
2022/06/14 00:04:30;;;;;;;;;;;;;;;11.67;100.00;96360.16;1035382;28;19932;-70
2022/06/14 00:05:00;;;;;;;;;;;;;;;11.66;100.00;96358.59;1035444;28;19909;-71
2022/06/14 00:05:31;;;;;;;;;;;;;;;11.65;100.00;96364.91;1035852;28;19905;-69
2022/06/14 00:06:02;;;;;;;;;;;;;;;11.62;100.00;96357.53;1039707;28;20008;-69
2022/06/14 00:06:33;;;;;;;;;;;;;;;11.61;100.00;96355.94;1039827;28;20374;-70
2022/06/14 00:07:05;;;;;;;;;;;;;;;11.62;100.00;96363.56;1039704;28;19909;-69
2022/06/14 00:07:36;;;;;;;;;;;;;;;11.61;100.00;96363.81;1038274;28;19913;-69
2022/06/14 00:08:06;;;;;;;;;;;;;;;11.59;100.00;96358.81;1039659;28;19991;-68
2022/06/14 00:08:36;;;;;;;;;;;;;;;11.57;100.00;96361.69;1035402;28;19910;-72
2022/06/14 00:09:07;;;;;;;;;;;;;;;11.57;100.00;96366.19;1035389;28;19909;-68
2022/06/14 00:09:37;;;;;;;;;;;;;;;11.56;100.00;96360.09;1031299;28;20307;-68
2022/06/14 00:10:07;;;;;;;;;;;;;;;11.56;100.00;96365.34;1031356;28;20416;-69
2022/06/14 00:10:38;;;;;;;;;;;;;;;11.56;100.00;96367.19;1035477;28;19917;-70
2022/06/14 00:11:29;;;;;;;;;;;;;;;11.56;100.00;96361.94;1035430;28;19948;-69
2022/06/14 00:12:00;;;;;;;;;;;;;;;11.59;100.00;96373.78;1034494;28;19964;-67
2022/06/14 00:12:30;;;;;;;;;;;;;;;11.57;100.00;96364.34;1035493;28;19920;-71
2022/06/14 00:13:01;;;;;;;;;;;;;;;11.59;100.00;96376.41;1038704;28;19950;-70
2022/06/14 00:13:31;;;;;;;;;;;;;;;11.60;100.00;96370.91;1039807;28;20016;-70
2022/06/14 00:14:02;;;;;;;;;;;;;;;11.61;100.00;96361.19;1039746;28;19967;-71
2022/06/14 00:14:33;;;;;;;;;;;;;;;11.60;100.00;96365.63;1039360;28;19916;-71
2022/06/14 00:15:04;;;;;;;;;;;;;;;11.61;100.00;96362.00;1034763;28;20004;-70
2022/06/14 00:15:37;;;;;;;;;;;;;;;11.61;100.00;96364.63;1027645;28;20438;-69
2022/06/14 00:16:07;;;;;;;;;;;;;;;11.61;100.00;96371.72;1030587;28;20013;-68
2022/06/14 00:16:38;;;;;;;;;;;;;;;11.61;100.00;96371.72;1031866;28;19933;-70
2022/06/14 00:17:08;;;;;;;;;;;;;;;11.62;100.00;96373.28;1036071;28;19914;-70
2022/06/14 00:17:39;;;;;;;;;;;;;;;11.62;100.00;96368.03;1035328;28;19924;-70
2022/06/14 00:18:09;;;;;;;;;;;;;;;11.62;100.00;96368.03;1035361;28;20579;-69
2022/06/14 00:18:40;;;;;;;;;;;;;;;11.62;100.00;96365.41;1035471;28;20329;-69
2022/06/14 00:19:13;;;;;;;;;;;;;;;11.63;100.00;96366.97;1035928;28;19910;-71
2022/06/14 00:19:43;;;;;;;;;;;;;;;11.61;100.00;96366.47;1039598;28;19956;-69
2022/06/14 00:20:13;;;;;;;;;;;;;;;11.60;100.00;96370.09;1035836;28;20504;-70
2022/06/14 00:20:44;;;;;;;;;;;;;;;11.60;100.00;96370.09;1035130;28;20367;-69
2022/06/14 00:21:15;;;;;;;;;;;;;;;11.57;100.00;96361.69;1031737;28;19989;-69
2022/06/14 00:21:45;;;;;;;;;;;;;;;11.57;100.00;96363.53;1031384;28;19910;-70
2022/06/14 00:22:16;;;;;;;;;;;;;;;11.57;100.00;96364.34;1033433;28;19921;-69
2022/06/14 00:22:46;;;;;;;;;;;;;;;11.58;100.00;96365.13;1035465;28;20397;-71
2022/06/14 00:23:17;;;;;;;;;;;;;;;11.56;100.00;96365.34;1039814;28;19917;-71
2022/06/14 00:23:47;;;;;;;;;;;;;;;11.55;100.00;96363.78;1041798;28;19912;-69
2022/06/14 00:24:18;;;;;;;;;;;;;;;11.57;100.00;96363.53;1035486;28;20518;-67
2022/06/14 00:24:48;;;;;;;;;;;;;;;11.56;100.00;96361.94;1034960;28;19913;-69
2022/06/14 00:25:29;;;;;;;;;;;;;;;11.57;100.00;96366.97;1034692;28;20456;-73
2022/06/14 00:25:59;;;;;;;;;;;;;;;11.57;100.00;96368.81;1031369;28;19914;-69
2022/06/14 00:26:30;;;;;;;;;;;;;;;11.57;100.00;96369.59;1031384;28;20374;-68
2022/06/14 00:27:00;;;;;;;;;;;;;;;11.58;100.00;96367.75;1031423;28;20339;-67
2022/06/14 00:27:30;;;;;;;;;;;;;;;11.57;100.00;96366.97;1039387;28;20596;-70
2022/06/14 00:28:01;;;;;;;;;;;;;;;11.57;100.00;96366.97;1039623;28;19996;-71
2022/06/14 00:28:33;;;;;;;;;;;;;;;11.56;100.00;96367.19;1039538;28;19967;-68
2022/06/14 00:29:03;;;;;;;;;;;;;;;11.56;100.00;96370.63;1039159;28;19917;-69
2022/06/14 00:29:33;;;;;;;;;;;;;;;11.56;100.00;96370.63;1039771;28;19961;-71
2022/06/14 00:30:04;;;;;;;;;;;;;;;11.56;100.00;96365.34;1043977;28;20440;-70
2022/06/14 00:30:34;;;;;;;;;;;;;;;11.57;100.00;96372.22;1043746;28;19913;-69
2022/06/14 00:31:09;;;;;;;;;;;;;;;11.55;100.00;96363.78;1039385;28;19963;-69
2022/06/14 00:31:39;;;;;;;;;;;;;;;11.54;100.00;96367.47;1031290;28;19918;-69
2022/06/14 00:32:10;;;;;;;;;;;;;;;11.54;100.00;96361.41;1027680;28;19966;-70
2022/06/14 00:32:47;;;;;;;;;;;;;;;11.53;100.00;96367.69;1031137;28;19922;-70
2022/06/14 00:33:17;;;;;;;;;;;;;;;11.52;100.00;96364.28;1029074;28;19974;-70
2022/06/14 00:33:48;;;;;;;;;;;;;;;11.52;100.00;96369.53;1035148;28;19960;-68
2022/06/14 00:34:19;;;;;;;;;;;;;;;11.50;100.00;96365.56;1035197;28;19917;-70
2022/06/14 00:34:49;;;;;;;;;;;;;;;11.50;100.00;96365.56;1035439;28;19928;-69
2022/06/14 00:35:20;;;;;;;;;;;;;;;11.48;100.00;96363.22;1035205;28;19917;-70
2022/06/14 00:36:02;;;;;;;;;;;;;;;11.48;100.00;96360.59;1038066;28;19921;-69
2022/06/14 00:36:33;;;;;;;;;;;;;;;11.49;100.00;96369.25;1044006;28;19917;-68
2022/06/14 00:37:03;;;;;;;;;;;;;;;11.47;100.00;96364.25;1043906;28;20685;-71
2022/06/14 00:37:33;;;;;;;;;;;;;;;11.47;100.00;96364.25;1039262;28;19940;-70
2022/06/14 00:38:04;;;;;;;;;;;;;;;11.45;100.00;96363.72;1039494;28;19923;-69
2022/06/14 00:38:35;;;;;;;;;;;;;;;11.44;100.00;96366.59;1039578;28;19923;-70
2022/06/14 00:39:06;;;;;;;;;;;;;;;11.43;100.00;96368.41;1035425;28;19924;-71
2022/06/14 00:39:37;;;;;;;;;;;;;;;11.41;100.00;96360.00;1039346;28;19975;-67
2022/06/14 00:40:08;;;;;;;;;;;;;;;11.40;100.00;96363.69;1035277;28;19971;-71
2022/06/14 00:40:39;;;;;;;;;;;;;;;11.38;100.00;96357.88;1031427;28;19921;-69
2022/06/14 00:41:18;;;;;;;;;;;;;;;11.36;100.00;96359.97;1031355;28;20404;-69
2022/06/14 00:41:49;;;;;;;;;;;;;;;11.35;100.00;96363.63;1028345;28;20288;-71
2022/06/14 00:42:20;;;;;;;;;;;;;;;11.33;100.00;96368.34;1031734;28;20422;-69
2022/06/14 00:42:51;;;;;;;;;;;;;;;11.31;100.00;96362.56;1028703;28;20566;-68
2022/06/14 00:43:21;;;;;;;;;;;;;;;11.30;100.00;96360.97;1031584;28;20049;-69
2022/06/14 00:43:52;;;;;;;;;;;;;;;11.30;100.00;96360.97;1033711;28;20437;-70
2022/06/14 00:44:26;;;;;;;;;;;;;;;11.29;100.00;96364.63;1033738;28;20417;-69
2022/06/14 00:45:19;;;;;;;;;;;;;;;11.28;100.00;96363.84;1031445;28;19949;-69
2022/06/14 00:45:49;;;;;;;;;;;;;;;11.27;100.00;96362.28;1026256;28;19918;-68
2022/06/14 00:46:21;;;;;;;;;;;;;;;11.27;100.00;96364.13;1023085;29;19997;-69
2022/06/14 00:47:10;;;;;;;;;;;;;;;11.25;100.00;96364.34;1036183;28;19956;-70
2022/06/14 00:48:07;;;;;;;;;;;;;;;11.24;100.00;96367.25;1034997;28;19968;-68
2022/06/14 00:48:37;;;;;;;;;;;;;;;11.21;100.00;96365.13;1031941;28;19924;-70
2022/06/14 00:49:28;;;;;;;;;;;;;;;11.21;100.00;96359.88;1035041;28;19948;-71
2022/06/14 00:49:59;;;;;;;;;;;;;;;11.21;100.00;96367.75;1039409;28;19940;-70
2022/06/14 00:50:32;;;;;;;;;;;;;;;11.21;100.00;96358.03;1031305;28;20462;-68
2022/06/14 00:51:06;;;;;;;;;;;;;;;11.21;100.00;96362.50;1028823;28;19956;-67
2022/06/14 00:51:46;;;;;;;;;;;;;;;11.19;100.00;96367.19;1027532;28;19956;-70
2022/06/14 00:52:25;;;;;;;;;;;;;;;11.20;100.00;96371.38;1026874;28;20014;-69
2022/06/14 00:52:57;;;;;;;;;;;;;;;11.16;100.00;96371.09;1028630;28;19917;-69
2022/06/14 00:53:29;;;;;;;;;;;;;;;11.15;100.00;96369.53;1033665;28;19945;-69
2022/06/14 00:54:05;;;;;;;;;;;;;;;11.14;100.00;96367.16;1030461;28;20544;-68
2022/06/14 00:54:36;;;;;;;;;;;;;;;11.13;100.00;96371.59;1034145;28;19918;-69
2022/06/14 00:55:09;;;;;;;;;;;;;;;11.11;100.00;96372.91;1035374;28;20665;-68
2022/06/14 00:55:40;;;;;;;;;;;;;;;11.11;100.00;96367.66;1035449;28;19917;-69
2022/06/14 00:56:15;;;;;;;;;;;;;;;11.09;100.00;96366.06;1037191;28;19924;-69
2022/06/14 00:57:04;;;;;;;;;;;;;;;11.11;100.00;96367.66;1039173;28;19905;-70
2022/06/14 00:57:42;;;;;;;;;;;;;;;11.09;100.00;96371.31;1043134;28;19990;-69
2022/06/14 00:58:14;;;;;;;;;;;;;;;11.08;100.00;96369.72;1044122;28;20233;-69
2022/06/14 00:58:52;;;;;;;;;;;;;;;11.06;100.00;96365.75;1039301;28;20405;-69
2022/06/14 00:59:24;;;;;;;;;;;;;;;11.04;100.00;96368.66;1039177;28;20387;-69
2022/06/14 01:00:08;;;;;;;;;;;;;;;11.01;100.00;96363.91;1039648;28;19913;-70
2022/06/14 01:00:47;;;;;;;;;;;;;;;11.02;100.00;96365.47;1038335;28;20579;-70
2022/06/14 01:01:25;;;;;;;;;;;;;;;11.01;100.00;96366.53;1035503;28;19952;-70
2022/06/14 01:01:56;;;;;;;;;;;;;;;11.02;100.00;96365.47;1035274;28;19917;-69
2022/06/14 01:02:28;;;;;;;;;;;;;;;11.05;100.00;96364.97;1033744;28;20129;-69
2022/06/14 01:02:59;;;;;;;;;;;;;;;11.04;100.00;96363.41;1032621;28;19910;-67
2022/06/14 01:03:49;;;;;;;;;;;;;;;11.02;100.00;96370.72;1035514;28;19918;-69
2022/06/14 01:04:22;;;;;;;;;;;;;;;11.02;100.00;96365.47;1030167;28;20403;-70
2022/06/14 01:04:52;;;;;;;;;;;;;;;11.02;100.00;96364.69;1037528;28;20291;-69
2022/06/14 01:05:26;;;;;;;;;;;;;;;10.99;100.00;96365.97;1035620;28;19940;-71
2022/06/14 01:06:05;;;;;;;;;;;;;;;10.95;100.00;96364.88;1031339;28;19913;-71
2022/06/14 01:06:36;;;;;;;;;;;;;;;10.96;100.00;96363.84;1032680;28;20379;-71
2022/06/14 01:07:09;;;;;;;;;;;;;;;10.94;100.00;96370.41;1028369;28;20021;-69
2022/06/14 01:07:42;;;;;;;;;;;;;;;10.89;100.00;96363.25;1035665;28;19918;-69
2022/06/14 01:08:12;;;;;;;;;;;;;;;10.88;100.00;96361.69;1034436;28;20311;-70
2022/06/14 01:08:47;;;;;;;;;;;;;;;10.87;100.00;96370.59;1035119;28;20005;-70
2022/06/14 01:09:18;;;;;;;;;;;;;;;10.89;100.00;96359.84;1038468;28;19933;-70
2022/06/14 01:10:08;;;;;;;;;;;;;;;10.88;100.00;96363.50;1038355;28;19913;-69
2022/06/14 01:10:39;;;;;;;;;;;;;;;10.83;100.00;96369.50;1037250;28;19917;-69
2022/06/14 01:11:10;;;;;;;;;;;;;;;10.81;100.00;96363.72;1038509;28;19940;-71
2022/06/14 01:11:46;;;;;;;;;;;;;;;10.82;100.00;96366.06;1038470;28;19921;-71
2022/06/14 01:12:17;;;;;;;;;;;;;;;10.79;100.00;96360.53;1033783;28;19914;-71
2022/06/14 01:12:48;;;;;;;;;;;;;;;10.74;100.00;96368.38;1034243;28;20053;-69
2022/06/14 01:13:18;;;;;;;;;;;;;;;10.71;100.00;96364.41;1033890;28;19918;-73
2022/06/14 01:13:49;;;;;;;;;;;;;;;10.69;100.00;96366.47;1034101;28;19914;-70
2022/06/14 01:14:21;;;;;;;;;;;;;;;10.68;100.00;96364.91;1033870;28;20376;-69
2022/06/14 01:14:51;;;;;;;;;;;;;;;10.67;100.00;96363.31;1035496;28;19917;-71
2022/06/14 01:15:21;;;;;;;;;;;;;;;10.67;100.00;96357.28;1038321;28;19979;-73
2022/06/14 01:15:58;;;;;;;;;;;;;;;10.62;100.00;96360.63;1042008;28;20000;-71
2022/06/14 01:16:30;;;;;;;;;;;;;;;10.60;100.00;96360.09;1038710;28;19942;-72
2022/06/14 01:17:00;;;;;;;;;;;;;;;10.61;100.00;96362.47;1037955;28;19947;-70
2022/06/14 01:17:31;;;;;;;;;;;;;;;10.64;100.00;96357.78;1036640;28;19914;-70
2022/06/14 01:18:03;;;;;;;;;;;;;;;10.64;100.00;96365.66;1038696;28;19964;-71
2022/06/14 01:18:34;;;;;;;;;;;;;;;10.61;100.00;96359.06;1040870;28;20307;-71
2022/06/14 01:19:05;;;;;;;;;;;;;;;10.59;100.00;96359.28;1039200;28;19939;-69
2022/06/14 01:19:36;;;;;;;;;;;;;;;10.59;100.00;96366.38;1035379;28;20371;-71
2022/06/14 01:20:07;;;;;;;;;;;;;;;10.59;100.00;96358.50;1031276;28;19921;-69
2022/06/14 01:20:37;;;;;;;;;;;;;;;10.57;100.00;96361.38;1024087;28;19923;-70
2022/06/14 01:21:08;;;;;;;;;;;;;;;10.54;100.00;96359.25;1023105;28;19926;-70
2022/06/14 01:21:38;;;;;;;;;;;;;;;10.53;100.00;96362.91;1027574;28;19929;-73
2022/06/14 01:22:08;;;;;;;;;;;;;;;10.54;100.00;96354.00;1030641;28;19925;-69
2022/06/14 01:22:39;;;;;;;;;;;;;;;10.56;100.00;96354.56;1030564;28;20292;-70
2022/06/14 01:23:10;;;;;;;;;;;;;;;10.55;100.00;96358.19;1030093;28;19942;-70
2022/06/14 01:23:42;;;;;;;;;;;;;;;10.57;100.00;96364.00;1031168;28;19924;-70
2022/06/14 01:24:13;;;;;;;;;;;;;;;10.57;100.00;96358.75;1031861;28;19922;-71
2022/06/14 01:24:44;;;;;;;;;;;;;;;10.56;100.00;96357.19;1027627;28;19918;-68
2022/06/14 01:25:14;;;;;;;;;;;;;;;10.56;100.00;96357.19;1031179;28;19925;-70
2022/06/14 01:26:05;;;;;;;;;;;;;;;10.56;100.00;96361.59;1027170;28;19914;-72
2022/06/14 01:26:36;;;;;;;;;;;;;;;10.53;100.00;96355.03;1032683;28;20545;-72
2022/06/14 01:27:08;;;;;;;;;;;;;;;10.58;100.00;96356.91;1031154;28;19925;-70
2022/06/14 01:27:39;;;;;;;;;;;;;;;10.62;100.00;96352.75;1030133;28;20589;-70
2022/06/14 01:28:10;;;;;;;;;;;;;;;10.66;100.00;96360.91;1031418;28;19918;-69
2022/06/14 01:28:42;;;;;;;;;;;;;;;10.66;100.00;96350.44;1031610;28;19913;-70
2022/06/14 01:29:13;;;;;;;;;;;;;;;10.70;100.00;96351.53;1034934;28;20023;-69
2022/06/14 01:29:48;;;;;;;;;;;;;;;10.72;100.00;96346.81;1031136;28;19988;-71
2022/06/14 01:30:20;;;;;;;;;;;;;;;10.72;100.00;96349.44;1028146;28;20284;-69
2022/06/14 01:30:51;;;;;;;;;;;;;;;10.70;100.00;96348.91;1028016;28;19918;-70
2022/06/14 01:31:24;;;;;;;;;;;;;;;10.62;100.00;96348.28;1028391;28;20707;-70
2022/06/14 01:31:55;;;;;;;;;;;;;;;10.64;100.00;96349.91;1031686;28;19917;-70
2022/06/14 01:32:26;;;;;;;;;;;;;;;10.64;100.00;96352.53;1027152;28;19910;-68
2022/06/14 01:32:56;;;;;;;;;;;;;;;10.60;100.00;96350.38;1027718;28;19906;-71
2022/06/14 01:33:28;;;;;;;;;;;;;;;10.55;100.00;96347.69;1031121;28;19918;-69
2022/06/14 01:34:00;;;;;;;;;;;;;;;10.55;100.00;96354.78;1025232;28;19910;-72
2022/06/14 01:34:30;;;;;;;;;;;;;;;10.53;100.00;96355.03;1027632;28;19910;-70
2022/06/14 01:35:03;;;;;;;;;;;;;;;10.52;100.00;96356.06;1027474;28;19917;-68
2022/06/14 01:35:35;;;;;;;;;;;;;;;10.50;100.00;96347.66;1024111;28;20064;-71
2022/06/14 01:36:09;;;;;;;;;;;;;;;10.48;100.00;96349.72;1027086;28;20428;-71
2022/06/14 01:36:41;;;;;;;;;;;;;;;10.45;100.00;96347.59;1022412;29;19911;-69
2022/06/14 01:37:13;;;;;;;;;;;;;;;10.43;100.00;96347.06;1020303;29;19907;-72
2022/06/14 01:37:44;;;;;;;;;;;;;;;10.41;100.00;96354.38;1020369;28;19915;-69
2022/06/14 01:38:15;;;;;;;;;;;;;;;10.39;100.00;96351.19;1027817;28;19917;-70
2022/06/14 01:38:49;;;;;;;;;;;;;;;10.36;100.00;96354.31;1027767;28;19960;-69
2022/06/14 01:39:19;;;;;;;;;;;;;;;10.36;100.00;96351.69;1035138;28;19996;-70
2022/06/14 01:39:49;;;;;;;;;;;;;;;10.34;100.00;96353.78;1035174;28;19980;-69
2022/06/14 01:40:21;;;;;;;;;;;;;;;10.33;100.00;96344.34;1035580;28;19909;-71
2022/06/14 01:40:55;;;;;;;;;;;;;;;10.30;100.00;96357.94;1031051;28;20642;-70
2022/06/14 01:41:32;;;;;;;;;;;;;;;10.26;100.00;96351.56;1023758;28;19910;-69
2022/06/14 01:42:05;;;;;;;;;;;;;;;10.24;100.00;96341.31;1022561;29;19907;-69
2022/06/14 01:42:36;;;;;;;;;;;;;;;10.26;100.00;96351.56;1026426;28;19917;-69
2022/06/14 01:43:25;;;;;;;;;;;;;;;10.22;100.00;96356.47;1029632;28;19914;-70
2022/06/14 01:43:55;;;;;;;;;;;;;;;10.19;100.00;96356.19;1036167;28;19905;-69
2022/06/14 01:44:29;;;;;;;;;;;;;;;10.17;100.00;96358.28;1038272;28;19909;-70
2022/06/14 01:45:15;;;;;;;;;;;;;;;10.15;100.00;96354.03;1042538;28;20032;-66
2022/06/14 01:46:18;;;;;;;;;;;;;;;10.16;100.00;96357.50;1043467;28;19904;-68
2022/06/14 01:46:48;;;;;;;;;;;;;;;10.16;100.00;96357.50;1026782;28;19914;-70
2022/06/14 01:47:37;;;;;;;;;;;;;;;10.14;100.00;96346.44;1026940;28;19921;-68
2022/06/14 01:48:19;;;;;;;;;;;;;;;10.10;100.00;96356.63;1039064;28;19933;-69
2022/06/14 01:51:50;;;;;;;;;;;;;;;10.08;100.00;96353.44;1031167;28;19997;-70
2022/06/14 01:51:59;;;;;;;;;;;;;;;9.99;100.00;96352.25;1039221;28;19941;-69
2022/06/14 01:53:05;;;;;;;;;;;;;;;9.99;100.00;96354.88;1041095;28;19913;-68
2022/06/14 01:53:56;;;;;;;;;;;;;;;9.97;100.00;96354.34;1027350;28;19969;-67
2022/06/14 01:54:35;;;;;;;;;;;;;;;9.96;100.00;96351.97;1021919;29;19903;-70
2022/06/14 01:55:18;;;;;;;;;;;;;;;9.94;100.00;96348.81;1020722;29;19914;-68
2022/06/14 01:55:48;;;;;;;;;;;;;;;9.95;100.00;96353.00;1019342;29;19933;-70
2022/06/14 01:56:37;;;;;;;;;;;;;;;9.94;100.00;96354.84;1032500;28;19917;-69
2022/06/14 01:57:09;;;;;;;;;;;;;;;9.92;100.00;96351.66;1039376;28;19909;-67
2022/06/14 01:57:49;;;;;;;;;;;;;;;9.90;100.00;96357.16;1035746;28;19909;-69
2022/06/14 01:58:38;;;;;;;;;;;;;;;9.86;100.00;96352.66;1039587;28;19994;-66
2022/06/14 01:59:27;;;;;;;;;;;;;;;9.85;100.00;96358.91;1039584;28;19935;-71
2022/06/14 02:00:02;;;;;;;;;;;;;;;9.82;100.00;96354.94;1044123;28;19916;-68
2022/06/14 02:00:35;;;;;;;;;;;;;;;9.83;100.00;96355.75;1039547;28;19905;-68
2022/06/14 02:01:20;;;;;;;;;;;;;;;9.85;100.00;96361.53;1035400;28;19988;-68
2022/06/14 02:02:01;;;;;;;;;;;;;;;9.81;100.00;96355.97;1035544;28;19906;-68
2022/06/14 02:02:43;;;;;;;;;;;;;;;9.80;100.00;96359.66;1031132;28;20385;-71
2022/06/14 02:05:23;;;;;;;;;;;;;;;9.79;100.00;96357.25;1035464;28;20000;-68
2022/06/14 02:05:59;;;;;;;;;;;;;;;9.78;100.00;96358.28;1035602;28;20298;-69
2022/06/14 02:06:34;;;;;;;;;;;;;;;9.75;100.00;96356.16;1033172;28;20404;-68
2022/06/14 02:07:13;;;;;;;;;;;;;;;9.77;100.00;96360.13;1032932;28;19947;-69
2022/06/14 02:07:53;;;;;;;;;;;;;;;9.77;100.00;96359.34;1034159;28;20010;-70
2022/06/14 02:08:27;;;;;;;;;;;;;;;9.79;100.00;96355.44;1034702;28;19913;-68
2022/06/14 02:09:03;;;;;;;;;;;;;;;9.79;100.00;96352.81;1035767;28;19971;-66
2022/06/14 02:09:34;;;;;;;;;;;;;;;9.81;100.00;96361.22;1031896;28;20469;-71
2022/06/14 02:10:13;;;;;;;;;;;;;;;9.80;100.00;96358.84;1039642;28;19963;-69
2022/06/14 02:11:04;;;;;;;;;;;;;;;9.80;100.00;96364.09;1039646;28;20353;-69
2022/06/14 02:11:36;;;;;;;;;;;;;;;9.79;100.00;96354.63;1039552;28;19921;-70
2022/06/14 02:12:06;;;;;;;;;;;;;;;9.80;100.00;96353.63;1033258;28;20421;-71
2022/06/14 02:12:39;;;;;;;;;;;;;;;9.80;100.00;96354.41;1031188;28;20020;-68
2022/06/14 02:13:14;;;;;;;;;;;;;;;9.80;100.00;96358.84;1033604;28;19953;-69
2022/06/14 02:13:47;;;;;;;;;;;;;;;9.79;100.00;96357.25;1032537;28;20469;-69
2022/06/14 02:14:24;;;;;;;;;;;;;;;9.78;100.00;96350.44;1035668;28;20299;-68
2022/06/14 02:14:58;;;;;;;;;;;;;;;9.79;100.00;96352.00;1035337;28;19995;-68
2022/06/14 02:15:47;;;;;;;;;;;;;;;9.76;100.00;96352.50;1039148;28;19945;-71
2022/06/14 02:16:21;;;;;;;;;;;;;;;9.74;100.00;96354.56;1044161;28;19941;-69
2022/06/14 02:17:01;;;;;;;;;;;;;;;9.75;100.00;96356.94;1044074;28;19932;-70
2022/06/14 02:17:35;;;;;;;;;;;;;;;9.74;100.00;96354.56;1039797;28;20032;-70
2022/06/14 02:18:10;;;;;;;;;;;;;;;9.72;100.00;96351.38;1035201;28;20310;-67
2022/06/14 02:18:42;;;;;;;;;;;;;;;9.71;100.00;96355.06;1031699;28;19977;-70
2022/06/14 02:19:18;;;;;;;;;;;;;;;9.71;100.00;96360.28;1032881;28;20403;-70
2022/06/14 02:19:51;;;;;;;;;;;;;;;9.71;100.00;96360.28;1036965;28;20738;-69
2022/06/14 02:20:24;;;;;;;;;;;;;;;9.70;100.00;96348.25;1035799;28;19917;-70
2022/06/14 02:21:08;;;;;;;;;;;;;;;9.68;100.00;96351.09;1031535;28;19953;-68
2022/06/14 02:21:41;;;;;;;;;;;;;;;9.70;100.00;96358.72;1031516;28;19938;-70
2022/06/14 02:22:16;;;;;;;;;;;;;;;9.70;100.00;96358.72;1033336;28;19924;-69
2022/06/14 02:22:49;;;;;;;;;;;;;;;9.72;100.00;96351.38;1034366;28;19922;-69
2022/06/14 02:23:22;;;;;;;;;;;;;;;9.72;100.00;96356.63;1031551;28;19925;-69
2022/06/14 02:24:00;;;;;;;;;;;;;;;9.71;100.00;96355.84;1027060;28;19953;-71
2022/06/14 02:24:36;;;;;;;;;;;;;;;9.70;100.00;96354.25;1025818;28;20009;-70
2022/06/14 02:25:17;;;;;;;;;;;;;;;9.66;100.00;96359.19;1025459;28;19924;-69
2022/06/14 02:25:47;;;;;;;;;;;;;;;9.67;100.00;96358.16;1023347;29;19925;-69
2022/06/14 02:26:20;;;;;;;;;;;;;;;9.64;100.00;96361.25;1025566;28;20913;-68
2022/06/14 02:27:16;;;;;;;;;;;;;;;9.63;100.00;96358.88;1025266;28;20005;-68
2022/06/14 02:27:48;;;;;;;;;;;;;;;9.61;100.00;96356.50;1022825;28;20347;-69
2022/06/14 02:28:21;;;;;;;;;;;;;;;9.60;100.00;96359.38;1024003;28;20428;-70
2022/06/14 02:28:53;;;;;;;;;;;;;;;9.60;100.00;96351.50;1027339;28;19914;-70
2022/06/14 02:29:49;;;;;;;;;;;;;;;9.59;100.00;96355.97;1019391;29;19919;-71
2022/06/14 02:30:22;;;;;;;;;;;;;;;9.58;100.00;96353.56;1021190;29;19951;-68
2022/06/14 02:30:56;;;;;;;;;;;;;;;9.56;100.00;96358.25;1023391;29;19965;-69
2022/06/14 02:31:37;;;;;;;;;;;;;;;9.58;100.00;96361.41;1027384;28;19937;-70
2022/06/14 02:32:10;;;;;;;;;;;;;;;9.58;100.00;96356.19;1024832;28;19914;-70
2022/06/14 02:32:44;;;;;;;;;;;;;;;9.57;100.00;96360.63;1025632;28;20424;-69
2022/06/14 02:33:17;;;;;;;;;;;;;;;9.58;100.00;96364.81;1029860;28;19942;-69
2022/06/14 02:33:58;;;;;;;;;;;;;;;9.55;100.00;96361.91;1031416;28;20494;-68
2022/06/14 02:34:31;;;;;;;;;;;;;;;9.54;100.00;96360.31;1033949;28;19916;-69
2022/06/14 02:35:12;;;;;;;;;;;;;;;9.54;100.00;96355.09;1031401;28;19906;-71
2022/06/14 02:35:49;;;;;;;;;;;;;;;9.54;100.00;96358.50;1032784;28;19939;-71
2022/06/14 02:36:28;;;;;;;;;;;;;;;9.51;100.00;96356.34;1037998;28;19916;-69
2022/06/14 02:37:09;;;;;;;;;;;;;;;9.53;100.00;96359.53;1035332;28;19921;-67
2022/06/14 02:37:58;;;;;;;;;;;;;;;9.56;100.00;96360.88;1034756;28;19913;-69
2022/06/14 02:38:38;;;;;;;;;;;;;;;9.55;100.00;96362.69;1035720;28;19944;-69
2022/06/14 02:39:10;;;;;;;;;;;;;;;9.51;100.00;96358.97;1035335;28;19917;-69
2022/06/14 02:40:09;;;;;;;;;;;;;;;9.53;100.00;96364.78;1035475;28;19929;-68
2022/06/14 02:40:41;;;;;;;;;;;;;;;9.51;100.00;96361.59;1026902;28;20002;-70
2022/06/14 02:41:16;;;;;;;;;;;;;;;9.49;100.00;96358.44;1035535;28;19910;-70
2022/06/14 02:41:49;;;;;;;;;;;;;;;9.50;100.00;96364.47;1039453;28;20394;-67
2022/06/14 02:42:30;;;;;;;;;;;;;;;9.49;100.00;96353.19;1034524;28;20309;-67
2022/06/14 02:43:02;;;;;;;;;;;;;;;9.47;100.00;96355.25;1033874;28;19918;-69
2022/06/14 02:44:11;;;;;;;;;;;;;;;9.48;100.00;96356.81;1035607;28;19913;-71
2022/06/14 02:44:42;;;;;;;;;;;;;;;9.47;100.00;96359.69;1028371;28;19917;-69
2022/06/14 02:45:15;;;;;;;;;;;;;;;9.48;100.00;96361.28;1027148;28;19911;-69
2022/06/14 02:45:52;;;;;;;;;;;;;;;9.48;100.00;96361.28;1022980;29;19911;-67
2022/06/14 02:46:32;;;;;;;;;;;;;;;9.47;100.00;96354.47;1023229;29;20490;-70
2022/06/14 02:47:21;;;;;;;;;;;;;;;9.46;100.00;96358.91;1017245;29;20005;-69
2022/06/14 02:48:15;;;;;;;;;;;;;;;9.46;100.00;96356.28;1034728;28;19913;-71
2022/06/14 02:48:46;;;;;;;;;;;;;;;9.46;100.00;96358.91;1029889;28;20578;-69
2022/06/14 02:49:22;;;;;;;;;;;;;;;9.45;100.00;96357.31;1040166;28;20502;-70
2022/06/14 02:49:54;;;;;;;;;;;;;;;9.44;100.00;96350.47;1040286;28;20263;-69
2022/06/14 02:50:27;;;;;;;;;;;;;;;9.44;100.00;96355.72;1036458;28;20486;-69
2022/06/14 02:51:05;;;;;;;;;;;;;;;9.44;100.00;96355.72;1031890;28;19929;-67
2022/06/14 02:51:44;;;;;;;;;;;;;;;9.42;100.00;96358.59;1034088;28;19917;-69
2022/06/14 02:52:32;;;;;;;;;;;;;;;9.41;100.00;96356.19;1034278;28;19913;-68
2022/06/14 02:53:23;;;;;;;;;;;;;;;9.40;100.00;96354.63;1036202;28;19925;-69
2022/06/14 02:53:57;;;;;;;;;;;;;;;9.39;100.00;96359.06;1037099;28;19917;-67
2022/06/14 02:54:29;;;;;;;;;;;;;;;9.39;100.00;96358.28;1040218;28;20434;-69
2022/06/14 02:55:02;;;;;;;;;;;;;;;9.39;100.00;96355.66;1039674;28;19905;-69
2022/06/14 02:55:43;;;;;;;;;;;;;;;9.38;100.00;96357.47;1032408;28;19906;-70
2022/06/14 02:56:23;;;;;;;;;;;;;;;9.38;100.00;96356.69;1028111;28;19994;-68
2022/06/14 02:56:59;;;;;;;;;;;;;;;9.37;100.00;96357.72;1027311;28;19906;-72
2022/06/14 02:57:38;;;;;;;;;;;;;;;9.34;100.00;96355.56;1035078;28;20644;-69
2022/06/14 02:58:14;;;;;;;;;;;;;;;9.37;100.00;96350.66;1023875;29;20308;-69
2022/06/14 02:58:51;;;;;;;;;;;;;;;9.46;100.00;96358.91;1026715;28;19906;-71
2022/06/14 02:59:26;;;;;;;;;;;;;;;9.52;100.00;96357.13;1027207;28;19916;-69
2022/06/14 03:00:02;;;;;;;;;;;;;;;9.58;100.00;96356.97;1028254;28;20332;-67
2022/06/14 03:00:49;;;;;;;;;;;;;;;9.64;100.00;96366.50;1029599;28;19906;-70
2022/06/14 03:01:23;;;;;;;;;;;;;;;9.69;100.00;96363.13;1031505;28;19906;-69
2022/06/14 03:01:58;;;;;;;;;;;;;;;9.72;100.00;96352.19;1031684;28;19952;-71
2022/06/14 03:02:33;;;;;;;;;;;;;;;9.75;100.00;96356.16;1034447;28;19917;-69
2022/06/14 03:03:06;;;;;;;;;;;;;;;9.76;100.00;96357.72;1033305;28;19997;-70
2022/06/14 03:03:38;;;;;;;;;;;;;;;9.78;100.00;96356.47;1035846;28;20380;-72
2022/06/14 03:04:11;;;;;;;;;;;;;;;9.76;100.00;96352.50;1022371;28;19915;-70
2022/06/14 03:05:02;;;;;;;;;;;;;;;9.75;100.00;96356.16;1026417;28;20304;-69
2022/06/14 03:05:37;;;;;;;;;;;;;;;9.72;100.00;96351.38;1027818;28;19910;-70
2022/06/14 03:06:27;;;;;;;;;;;;;;;9.63;100.00;96357.06;1031507;28;20018;-72